Time;durP1;ratioP1;P1;durP2;ratioP2;P2;SDS_P1;SDS_P2;PMS_P1;PMS_P2;Temp;Humidity;BMP_temperature;BMP_pressure;BME280_temperature;BME280_humidity;BME280_pressure;Samples;Min_cycle;Max_cycle;Signal;HPM_P1;HPM_P2
2023/07/12 00:01:36;;;;;;;4.53;1.77;;;21.30;99.90;;;;;;4191745;28;20044;-60
2023/07/12 00:03:56;;;;;;;16.15;2.55;;;21.30;99.90;;;;;;4191805;28;20055;-60
2023/07/12 00:06:32;;;;;;;8.15;1.73;;;21.30;99.90;;;;;;4192094;28;20048;-59
2023/07/12 00:08:52;;;;;;;7.55;2.28;;;21.40;99.90;;;;;;4192729;28;20056;-59
2023/07/12 00:11:23;;;;;;;10.48;1.70;;;21.30;99.90;;;;;;4188339;28;20305;-60
2023/07/12 00:13:43;;;;;;;8.18;2.50;;;21.20;99.90;;;;;;4188305;28;20268;-60
2023/07/12 00:16:22;;;;;;;10.85;2.97;;;20.90;99.90;;;;;;4188965;28;20094;-59
2023/07/12 00:18:42;;;;;;;16.80;1.80;;;20.90;99.90;;;;;;4190117;28;20144;-59
2023/07/12 00:21:02;;;;;;;8.70;2.50;;;21.00;99.90;;;;;;4188583;28;20048;-59
2023/07/12 00:23:22;;;;;;;7.07;2.28;;;20.90;99.90;;;;;;4193175;28;20044;-59
2023/07/12 00:25:44;;;;;;;6.30;1.90;;;20.80;99.90;;;;;;4192808;28;20044;-59
2023/07/12 00:28:21;;;;;;;13.90;2.75;;;20.80;99.90;;;;;;4190798;28;20055;-60
2023/07/12 00:30:41;;;;;;;14.05;2.10;;;20.80;99.90;;;;;;4193853;28;20048;-59
2023/07/12 00:33:04;;;;;;;8.55;3.05;;;20.80;99.90;;;;;;4192675;28;20047;-59
2023/07/12 00:35:25;;;;;;;;;;;20.90;99.90;;;;;;4194270;28;20115;-60
2023/07/12 00:37:45;;;;;;;11.43;2.08;;;20.90;99.90;;;;;;4196188;28;19923;-60
2023/07/12 00:40:41;;;;;;;13.80;2.58;;;20.60;99.90;;;;;;4196882;28;20047;-59
2023/07/12 00:43:52;;;;;;;12.05;3.35;;;20.30;99.90;;;;;;4192525;28;20113;-60
2023/07/12 00:46:21;;;;;;;7.65;2.83;;;20.40;99.90;;;;;;4188961;28;20102;-59
2023/07/12 00:48:41;;;;;;;12.25;2.47;;;20.50;99.90;;;;;;4194009;28;20043;-59
2023/07/12 00:51:26;;;;;;;10.38;2.55;;;20.70;99.90;;;;;;4191321;28;20083;-59
2023/07/12 00:53:46;;;;;;;7.82;1.90;;;20.70;99.90;;;;;;4190040;28;20040;-59
2023/07/12 00:56:10;;;;;;;11.45;2.08;;;20.60;99.90;;;;;;4192602;28;20083;-60
2023/07/12 00:58:35;;;;;;;5.82;2.92;;;20.60;99.90;;;;;;4193810;28;20052;-59
2023/07/12 01:00:56;;;;;;;11.20;2.90;;;20.80;99.90;;;;;;4191358;28;20272;-59
2023/07/12 01:03:20;;;;;;;10.57;2.85;;;20.80;99.90;;;;;;4190738;28;20056;-59
2023/07/12 01:05:43;;;;;;;14.20;2.67;;;20.80;99.90;;;;;;4191255;28;20055;-59
2023/07/12 01:08:04;;;;;;;8.15;1.80;;;20.60;99.90;;;;;;4191505;28;20044;-59
2023/07/12 01:10:24;;;;;;;14.48;3.13;;;20.50;99.90;;;;;;4192964;28;20232;-59
2023/07/12 01:12:46;;;;;;;15.93;3.10;;;20.30;99.90;;;;;;4192707;28;20075;-59
2023/07/12 01:15:09;;;;;;;12.73;2.65;;;20.20;99.90;;;;;;4192141;28;20071;-60
2023/07/12 01:17:29;;;;;;;12.32;3.15;;;20.20;99.90;;;;;;4188878;28;20073;-59
2023/07/12 01:19:49;;;;;;;9.13;2.58;;;20.10;99.90;;;;;;4190881;28;20237;-59
2023/07/12 01:22:10;;;;;;;14.57;3.15;;;19.80;99.90;;;;;;4191987;28;20105;-59
2023/07/12 01:24:31;;;;;;;4.70;2.40;;;19.80;99.90;;;;;;4190725;28;20071;-60
2023/07/12 01:26:57;;;;;;;13.68;3.47;;;20.00;99.90;;;;;;4190357;28;20228;-59
2023/07/12 01:29:21;;;;;;;8.52;3.33;;;20.10;99.90;;;;;;4192593;28;20248;-59
2023/07/12 01:31:42;;;;;;;10.68;2.70;;;20.20;99.90;;;;;;4191810;28;20112;-59
2023/07/12 01:34:02;;;;;;;7.80;2.67;;;20.00;99.90;;;;;;4193253;28;20091;-59
2023/07/12 01:36:23;;;;;;;10.20;3.80;;;20.00;99.90;;;;;;4192817;28;20043;-59
2023/07/12 01:38:43;;;;;;;8.20;2.40;;;20.20;99.90;;;;;;4190589;28;20287;-59
2023/07/12 01:41:03;;;;;;;5.15;2.42;;;20.30;99.90;;;;;;4197532;28;20043;-59
2023/07/12 01:43:23;;;;;;;13.82;2.38;;;20.40;99.90;;;;;;4193948;28;20043;-59
2023/07/12 01:45:43;;;;;;;8.07;2.80;;;20.20;99.90;;;;;;4192900;28;20082;-59
2023/07/12 01:48:03;;;;;;;9.93;2.63;;;20.20;99.90;;;;;;4193273;28;20048;-59
2023/07/12 01:50:23;;;;;;;8.93;2.67;;;20.20;99.90;;;;;;4198475;28;20122;-59
2023/07/12 01:52:43;;;;;;;10.13;3.10;;;19.90;99.90;;;;;;4200962;28;20048;-59
2023/07/12 01:55:03;;;;;;;7.45;3.05;;;19.70;99.90;;;;;;4192622;28;20055;-59
2023/07/12 01:57:23;;;;;;;9.10;3.15;;;19.50;99.90;;;;;;4189219;28;20044;-59
2023/07/12 01:59:43;;;;;;;7.50;2.28;;;19.40;99.90;;;;;;4189992;28;20087;-59
2023/07/12 02:02:03;;;;;;;10.60;2.67;;;19.50;99.90;;;;;;4189964;28;20051;-59
2023/07/12 02:04:23;;;;;;;10.45;2.92;;;19.70;99.90;;;;;;4196816;28;20108;-59
2023/07/12 02:06:43;;;;;;;8.65;3.33;;;19.80;99.90;;;;;;4192085;28;20095;-59
2023/07/12 02:09:04;;;;;;;6.45;2.20;;;19.70;99.90;;;;;;4188051;28;20060;-59
2023/07/12 02:11:24;;;;;;;15.80;4.15;;;19.80;99.90;;;;;;4187530;28;20055;-59
2023/07/12 02:13:44;;;;;;;7.45;2.10;;;20.00;99.90;;;;;;4189013;28;20079;-59
2023/07/12 02:16:04;;;;;;;14.07;2.38;;;19.90;99.90;;;;;;4188085;28;20171;-59
2023/07/12 02:18:24;;;;;;;5.95;2.67;;;19.60;99.90;;;;;;4187496;28;20180;-59
2023/07/12 02:20:44;;;;;;;11.27;2.55;;;19.60;99.90;;;;;;4191068;28;20051;-59
2023/07/12 02:23:05;;;;;;;7.90;2.88;;;19.70;99.90;;;;;;4191478;28;20098;-59
2023/07/12 02:25:25;;;;;;;7.50;3.50;;;19.50;99.90;;;;;;4191957;28;20098;-59
2023/07/12 02:27:45;;;;;;;6.82;2.15;;;19.30;99.90;;;;;;4192610;28;20052;-59
2023/07/12 02:30:09;;;;;;;9.82;3.13;;;19.10;99.90;;;;;;4191776;28;20267;-59
2023/07/12 02:32:29;;;;;;;5.07;2.15;;;19.00;99.90;;;;;;4191380;28;20052;-59
2023/07/12 02:34:50;;;;;;;7.97;1.95;;;18.70;99.90;;;;;;4188439;28;20055;-59
2023/07/12 02:37:10;;;;;;;9.75;3.85;;;18.80;99.90;;;;;;4192286;28;20087;-59
2023/07/12 02:39:29;;;;;;;4.05;3.22;;;18.90;99.90;;;;;;4193579;28;20083;-59
2023/07/12 02:41:49;;;;;;;12.63;3.63;;;19.00;99.90;;;;;;4194906;28;20051;-59
2023/07/12 02:44:09;;;;;;;8.13;3.45;;;18.90;99.90;;;;;;4194363;28;20067;-59
2023/07/12 02:46:29;;;;;;;5.97;2.58;;;19.10;99.90;;;;;;4189188;28;20051;-59
2023/07/12 02:48:49;;;;;;;13.13;3.17;;;18.90;99.90;;;;;;4189410;28;20051;-60
2023/07/12 02:51:08;;;;;;;6.20;2.35;;;18.90;99.90;;;;;;4190796;28;20052;-59
2023/07/12 02:53:29;;;;;;;11.35;2.83;;;18.90;99.90;;;;;;4197681;28;20048;-59
2023/07/12 02:55:51;;;;;;;7.80;3.53;;;19.10;99.90;;;;;;4197810;28;20052;-59
2023/07/12 02:58:10;;;;;;;9.25;2.28;;;19.10;99.90;;;;;;4196053;28;20127;-59
2023/07/12 03:00:30;;;;;;;6.68;2.72;;;19.10;99.90;;;;;;4191163;28;20078;-59
2023/07/12 03:02:50;;;;;;;5.38;2.92;;;19.10;99.90;;;;;;4188754;28;20060;-59
2023/07/12 03:05:10;;;;;;;14.77;3.50;;;19.00;99.90;;;;;;4187786;28;20052;-59
2023/07/12 03:07:30;;;;;;;10.65;2.97;;;18.80;99.90;;;;;;4193121;28;20082;-59
2023/07/12 03:09:55;;;;;;;10.20;2.33;;;18.80;99.90;;;;;;4201004;28;20051;-59
2023/07/12 03:12:15;;;;;;;10.85;3.55;;;18.80;99.90;;;;;;4188884;28;20418;-59
2023/07/12 03:14:36;;;;;;;12.30;3.22;;;19.00;99.90;;;;;;4188592;28;20120;-59
2023/07/12 03:16:56;;;;;;;11.10;3.70;;;19.10;99.90;;;;;;4188985;28;20048;-59
2023/07/12 03:19:17;;;;;;;10.25;3.22;;;19.10;99.90;;;;;;4190200;28;20118;-59
2023/07/12 03:21:37;;;;;;;14.73;3.30;;;19.00;99.90;;;;;;4188535;28;20040;-59
2023/07/12 03:23:57;;;;;;;9.73;3.72;;;19.00;99.90;;;;;;4194790;28;20322;-59
2023/07/12 03:26:18;;;;;;;7.07;4.18;;;18.90;99.90;;;;;;4186467;28;20043;-57
2023/07/12 03:28:38;;;;;;;14.30;3.25;;;18.90;99.90;;;;;;4186415;28;20475;-57
2023/07/12 03:31:05;;;;;;;10.85;3.85;;;18.90;99.90;;;;;;4188601;28;20047;-57
2023/07/12 03:33:25;;;;;;;8.13;3.92;;;18.90;99.90;;;;;;4188995;28;20075;-57
2023/07/12 03:35:50;;;;;;;12.18;4.20;;;18.90;99.90;;;;;;4188651;28;20066;-56
2023/07/12 03:38:09;;;;;;;6.38;3.83;;;18.70;99.90;;;;;;4187325;28;20067;-56
2023/07/12 03:40:30;;;;;;;6.95;3.65;;;18.70;99.90;;;;;;4191695;28;20052;-56
2023/07/12 03:42:50;;;;;;;7.75;3.40;;;18.80;99.90;;;;;;4191640;28;20075;-56
2023/07/12 03:45:11;;;;;;;9.32;2.35;;;18.80;99.90;;;;;;4192713;28;20397;-57
2023/07/12 03:47:31;;;;;;;7.05;3.50;;;18.90;99.90;;;;;;4193239;28;20048;-56
2023/07/12 03:49:51;;;;;;;7.68;3.00;;;18.90;99.90;;;;;;4190777;28;20048;-57
2023/07/12 03:52:11;;;;;;;13.85;4.00;;;18.80;99.90;;;;;;4189122;28;20087;-56
2023/07/12 03:54:31;;;;;;;11.68;3.22;;;18.70;99.90;;;;;;4190432;28;20055;-56
2023/07/12 03:56:51;;;;;;;10.48;3.20;;;18.70;99.90;;;;;;4195209;28;20047;-57
2023/07/12 03:59:14;;;;;;;9.70;3.05;;;18.70;99.90;;;;;;4194990;28;20063;-56
2023/07/12 04:01:34;;;;;;;8.57;3.08;;;18.70;99.90;;;;;;4196097;28;20070;-57
2023/07/12 04:03:54;;;;;;;13.35;3.90;;;18.70;99.90;;;;;;4190198;28;20063;-57
2023/07/12 04:06:14;;;;;;;15.68;3.75;;;18.70;99.90;;;;;;4191315;28;20278;-57
2023/07/12 04:08:34;;;;;;;8.70;2.92;;;18.80;99.90;;;;;;4190143;28;20095;-56
2023/07/12 04:10:56;;;;;;;6.35;2.10;;;18.80;99.90;;;;;;4198764;28;20056;-56
2023/07/12 04:13:16;;;;;;;6.22;2.58;;;18.90;99.90;;;;;;4201134;28;20078;-56
2023/07/12 04:15:36;;;;;;;10.90;3.65;;;18.90;99.90;;;;;;4196237;28;20086;-56
2023/07/12 04:17:57;;;;;;;5.88;3.28;;;18.90;99.90;;;;;;4190102;28;20367;-57
2023/07/12 04:20:19;;;;;;;;;;;18.90;99.90;;;;;;4190434;28;20271;-56
2023/07/12 04:22:39;;;;;;;10.95;3.08;;;18.80;99.90;;;;;;4192352;28;19931;-56
2023/07/12 04:24:59;;;;;;;6.95;3.13;;;18.80;99.90;;;;;;4190421;28;20108;-57
2023/07/12 04:27:19;;;;;;;9.60;3.53;;;18.80;99.90;;;;;;4200794;28;20043;-56
2023/07/12 04:29:39;;;;;;;13.45;4.53;;;18.80;99.90;;;;;;4188153;28;20083;-57
2023/07/12 04:32:00;;;;;;;10.52;3.90;;;18.80;99.90;;;;;;4191051;28;20056;-57
2023/07/12 04:34:20;;;;;;;9.73;3.63;;;18.90;99.90;;;;;;4189779;28;20060;-57
2023/07/12 04:36:57;;;;;;;12.00;4.55;;;18.90;99.90;;;;;;4190955;28;20068;-57
2023/07/12 04:39:17;;;;;;;7.55;2.85;;;19.00;99.90;;;;;;4189796;28;20051;-57
2023/07/12 04:41:38;;;;;;;11.15;3.25;;;19.10;99.90;;;;;;4188951;28;20051;-56
2023/07/12 04:43:58;;;;;;;7.70;2.65;;;19.20;99.90;;;;;;4191874;28;20300;-56
2023/07/12 04:46:18;;;;;;;9.48;3.08;;;19.20;99.90;;;;;;4191926;28;20091;-57
2023/07/12 04:48:38;;;;;;;7.85;2.85;;;19.20;99.90;;;;;;4192778;28;20094;-57
2023/07/12 04:50:57;;;;;;;9.55;4.50;;;19.30;99.90;;;;;;4193346;28;20040;-57
2023/07/12 04:53:19;;;;;;;9.68;2.97;;;19.30;99.90;;;;;;4193622;28;20047;-57
2023/07/12 04:55:39;;;;;;;11.05;3.38;;;19.40;99.90;;;;;;4191264;28;20112;-56
2023/07/12 04:58:00;;;;;;;8.68;3.67;;;19.40;99.90;;;;;;4192562;28;20116;-57
2023/07/12 05:00:20;;;;;;;13.23;3.22;;;19.40;99.90;;;;;;4195297;28;20055;-57
2023/07/12 05:02:42;;;;;;;9.90;3.10;;;19.40;99.90;;;;;;4195048;28;20087;-57
2023/07/12 05:05:02;;;;;;;12.00;2.72;;;19.50;99.90;;;;;;4196505;28;20106;-56
2023/07/12 05:07:23;;;;;;;7.40;3.42;;;19.40;99.90;;;;;;4193973;28;20044;-57
2023/07/12 05:09:43;;;;;;;11.63;3.35;;;19.40;99.90;;;;;;4189702;28;20051;-57
2023/07/12 05:12:04;;;;;;;8.60;3.42;;;19.40;99.90;;;;;;4190007;28;20091;-56
2023/07/12 05:14:24;;;;;;;8.75;3.10;;;19.50;99.90;;;;;;4196313;28;20043;-57
2023/07/12 05:16:44;;;;;;;9.13;2.67;;;19.50;99.90;;;;;;4198250;28;20393;-56
2023/07/12 05:19:04;;;;;;;10.82;3.47;;;19.50;99.90;;;;;;4199274;28;20048;-57
2023/07/12 05:21:25;;;;;;;10.77;3.92;;;19.50;99.90;;;;;;4189320;28;20048;-57
2023/07/12 05:23:45;;;;;;;13.68;3.42;;;19.60;99.90;;;;;;4189015;28;20110;-57
2023/07/12 05:26:05;;;;;;;14.15;4.35;;;19.60;99.90;;;;;;4191486;28;20056;-56
2023/07/12 05:28:25;;;;;;;8.13;2.63;;;19.70;99.90;;;;;;4192312;28;20040;-57
2023/07/12 05:30:45;;;;;;;8.80;2.78;;;19.90;99.90;;;;;;4202030;28;20374;-56
2023/07/12 05:33:05;;;;;;;10.25;2.10;;;20.00;99.90;;;;;;4199284;28;20052;-56
2023/07/12 05:35:25;;;;;;;10.88;3.72;;;20.00;99.90;;;;;;4192936;28;20087;-57
2023/07/12 05:37:47;;;;;;;14.07;2.15;;;20.10;99.90;;;;;;4190085;28;20091;-57
2023/07/12 05:40:09;;;;;;;9.30;2.08;;;20.20;99.90;;;;;;4190259;28;20059;-56
2023/07/12 05:42:29;;;;;;;7.85;3.08;;;20.30;99.90;;;;;;4190424;28;20044;-56
2023/07/12 05:44:49;;;;;;;5.90;2.42;;;20.40;99.90;;;;;;4197505;28;20075;-56
2023/07/12 05:47:09;;;;;;;10.77;2.10;;;20.60;99.90;;;;;;4188886;28;20051;-56
2023/07/12 05:49:29;;;;;;;15.55;3.17;;;20.70;99.90;;;;;;4188641;28;20047;-56
2023/07/12 05:51:50;;;;;;;9.15;2.50;;;20.70;99.90;;;;;;4188104;28;20052;-57
2023/07/12 05:54:10;;;;;;;8.82;2.00;;;20.80;99.90;;;;;;4189610;28;20108;-57
2023/07/12 05:56:30;;;;;;;11.73;2.33;;;21.00;99.90;;;;;;4189244;28;20051;-56
2023/07/12 05:58:49;;;;;;;6.40;3.03;;;21.20;99.90;;;;;;4188214;28;20087;-57
2023/07/12 06:01:09;;;;;;;12.80;2.53;;;21.20;99.90;;;;;;4191704;28;20095;-57
2023/07/12 06:03:32;;;;;;;9.32;2.42;;;21.20;99.90;;;;;;4192234;28;20311;-57
2023/07/12 06:05:52;;;;;;;13.48;3.15;;;21.40;99.90;;;;;;4192917;28;20056;-57
2023/07/12 06:08:12;;;;;;;7.93;2.63;;;21.40;99.90;;;;;;4193286;28;20141;-57
2023/07/12 06:10:32;;;;;;;6.15;2.22;;;21.40;99.90;;;;;;4193160;28;20105;-57
2023/07/12 06:12:52;;;;;;;9.23;2.35;;;21.40;99.90;;;;;;4191293;28;20082;-57
2023/07/12 06:15:12;;;;;;;17.02;3.80;;;21.50;99.90;;;;;;4188594;28;20079;-57
2023/07/12 06:17:32;;;;;;;7.95;1.92;;;21.70;99.90;;;;;;4192795;28;20044;-57
2023/07/12 06:19:52;;;;;;;8.40;2.22;;;22.20;99.90;;;;;;4194991;28;20055;-56
2023/07/12 06:22:12;;;;;;;6.38;2.05;;;22.40;99.90;;;;;;4195583;28;20066;-56
2023/07/12 06:24:32;;;;;;;6.63;1.33;;;22.40;99.90;;;;;;4194927;28;20094;-57
2023/07/12 06:26:52;;;;;;;8.68;1.90;;;22.50;99.90;;;;;;4189450;28;20083;-57
2023/07/12 06:29:12;;;;;;;6.18;1.40;;;22.60;99.90;;;;;;4189719;28;20051;-57
2023/07/12 06:31:32;;;;;;;9.57;2.00;;;22.80;99.90;;;;;;4191470;28;20039;-57
2023/07/12 06:33:53;;;;;;;14.65;1.63;;;23.00;99.90;;;;;;4198944;28;20055;-56
2023/07/12 06:36:13;;;;;;;5.95;1.73;;;23.10;99.90;;;;;;4198425;28;20111;-57
2023/07/12 06:38:33;;;;;;;4.80;1.45;;;23.20;99.90;;;;;;4194228;28;20274;-57
2023/07/12 06:40:54;;;;;;;5.85;1.27;;;23.40;99.90;;;;;;4191466;28;20056;-57
2023/07/12 06:43:14;;;;;;;9.15;1.70;;;23.30;99.90;;;;;;4189061;28;20108;-57
2023/07/12 06:45:34;;;;;;;8.02;2.20;;;23.50;99.90;;;;;;4187792;28;20043;-57
2023/07/12 06:47:54;;;;;;;8.52;1.58;;;23.80;99.90;;;;;;4193495;28;20075;-57
2023/07/12 06:50:14;;;;;;;8.02;1.77;;;23.90;99.90;;;;;;4201884;28;20056;-57
2023/07/12 06:52:34;;;;;;;8.70;1.52;;;24.10;99.90;;;;;;4188592;28;20370;-57
2023/07/12 06:54:55;;;;;;;9.73;1.85;;;24.30;99.90;;;;;;4189338;28;20343;-57
2023/07/12 06:57:18;;;;;;;2.53;1.70;;;24.40;99.90;;;;;;4188186;28;20044;-57
2023/07/12 06:59:39;;;;;;;5.30;1.08;;;24.50;99.90;;;;;;4190537;28;20125;-57
2023/07/12 07:01:59;;;;;;;12.20;1.42;;;24.70;99.90;;;;;;4188251;28;20055;-57
2023/07/12 07:04:19;;;;;;;8.77;1.23;;;25.10;99.90;;;;;;4190973;28;20064;-57
2023/07/12 07:06:39;;;;;;;7.55;0.95;;;25.40;99.90;;;;;;4186857;28;20044;-57
2023/07/12 07:08:59;;;;;;;3.70;1.08;;;25.40;99.90;;;;;;4189556;28;20407;-57
2023/07/12 07:11:19;;;;;;;9.98;1.98;;;25.40;99.90;;;;;;4189133;28;20090;-58
2023/07/12 07:13:39;;;;;;;2.78;1.42;;;25.70;99.90;;;;;;4190862;28;20044;-57
2023/07/12 07:15:59;;;;;;;5.50;0.88;;;25.90;99.90;;;;;;4191233;28;20043;-58
2023/07/12 07:18:19;;;;;;;5.82;1.52;;;26.20;99.90;;;;;;4189126;28;20051;-58
2023/07/12 07:20:40;;;;;;;7.15;1.48;;;26.30;99.90;;;;;;4191055;28;20067;-58
2023/07/12 07:23:01;;;;;;;5.70;1.30;;;26.40;99.90;;;;;;4192779;28;20239;-57
2023/07/12 07:25:22;;;;;;;1.58;0.80;;;26.30;99.90;;;;;;4193060;28;20052;-57
2023/07/12 07:27:42;;;;;;;4.75;1.52;;;26.50;99.90;;;;;;4193885;28;20071;-57
2023/07/12 07:30:02;;;;;;;1.73;1.20;;;26.60;99.90;;;;;;4190524;28;20055;-57
2023/07/12 07:32:22;;;;;;;2.65;0.90;;;26.50;99.90;;;;;;4187641;28;20083;-57
2023/07/12 07:34:43;;;;;;;6.20;1.15;;;26.60;99.90;;;;;;4191191;28;20082;-58
2023/07/12 07:37:03;;;;;;;7.03;1.65;;;26.80;99.90;;;;;;4195787;28;20067;-57
2023/07/12 07:39:23;;;;;;;1.98;0.90;;;26.90;99.90;;;;;;4195597;28;20220;-57
2023/07/12 07:41:43;;;;;;;9.38;1.10;;;27.00;99.90;;;;;;4196774;28;20047;-57
2023/07/12 07:44:03;;;;;;;8.38;1.30;;;27.30;99.90;;;;;;4187711;28;20371;-57
2023/07/12 07:46:23;;;;;;;3.80;0.98;;;27.20;99.90;;;;;;4190997;28;20406;-57
2023/07/12 07:48:44;;;;;;;4.72;1.08;;;27.20;99.90;;;;;;4189505;28;20055;-58
2023/07/12 07:51:04;;;;;;;3.53;0.80;;;27.20;99.90;;;;;;4195364;28;20048;-58
2023/07/12 07:53:26;;;;;;;1.55;0.88;;;27.00;99.90;;;;;;4196693;28;20098;-58
2023/07/12 07:55:46;;;;;;;7.15;0.90;;;27.50;99.90;;;;;;4196813;28;20229;-57
2023/07/12 07:58:09;;;;;;;4.93;0.80;;;27.60;99.50;;;;;;4191009;28;20060;-58
2023/07/12 08:00:29;;;;;;;2.85;0.90;;;27.60;99.60;;;;;;4188202;28;20454;-58
2023/07/12 08:02:52;;;;;;;2.63;0.90;;;27.40;98.10;;;;;;4186897;28;20092;-58
2023/07/12 08:05:14;;;;;;;5.43;0.80;;;27.40;99.90;;;;;;4186181;28;20099;-58
2023/07/12 08:07:44;;;;;;;1.95;0.80;;;27.70;98.40;;;;;;4196052;28;20108;-58
2023/07/12 08:10:05;;;;;;;1.58;0.82;;;28.00;98.50;;;;;;4185593;28;20268;-58
2023/07/12 08:12:25;;;;;;;4.00;0.80;;;27.70;97.90;;;;;;4188374;28;20052;-58
2023/07/12 08:14:46;;;;;;;4.78;1.35;;;27.80;98.60;;;;;;4187316;28;20085;-58
2023/07/12 08:17:07;;;;;;;1.40;0.77;;;27.90;97.70;;;;;;4188466;28;20051;-58
2023/07/12 08:19:28;;;;;;;2.65;1.05;;;28.10;96.70;;;;;;4188628;28;20043;-58
2023/07/12 08:21:49;;;;;;;6.30;0.80;;;27.80;97.30;;;;;;4189061;28;20052;-57
2023/07/12 08:24:09;;;;;;;4.53;0.80;;;27.40;97.80;;;;;;4188692;28;20056;-57
2023/07/12 08:26:29;;;;;;;1.60;0.80;;;27.70;98.00;;;;;;4188751;28;20289;-57
2023/07/12 08:28:49;;;;;;;4.63;1.60;;;28.00;98.20;;;;;;4188971;28;20264;-58
2023/07/12 08:31:09;;;;;;;0.88;0.85;;;28.00;96.40;;;;;;4190845;28;20048;-58
2023/07/12 08:33:30;;;;;;;2.33;0.88;;;28.00;97.90;;;;;;4190345;28;20052;-58
2023/07/12 08:35:50;;;;;;;2.10;0.90;;;28.10;97.60;;;;;;4186777;28;20371;-58
2023/07/12 08:38:10;;;;;;;5.38;0.88;;;28.10;97.20;;;;;;4191496;28;20090;-58
2023/07/12 08:40:30;;;;;;;2.90;0.75;;;28.30;97.70;;;;;;4192876;28;20048;-57
2023/07/12 08:42:50;;;;;;;2.08;0.80;;;27.90;96.70;;;;;;4193292;28;20408;-57
2023/07/12 08:45:22;;;;;;;4.80;0.77;;;27.60;97.40;;;;;;4194180;28;20064;-58
2023/07/12 08:47:44;;;;;;;2.70;0.80;;;27.60;97.60;;;;;;4189684;28;20371;-58
2023/07/12 08:50:14;;;;;;;1.30;0.70;;;27.90;97.70;;;;;;4188360;28;20376;-57
2023/07/12 08:52:34;;;;;;;4.18;0.80;;;27.80;97.50;;;;;;4189307;28;20233;-57
2023/07/12 08:54:56;;;;;;;9.70;0.88;;;27.80;97.70;;;;;;4199370;28;20082;-57
2023/07/12 08:57:18;;;;;;;3.33;0.90;;;27.50;97.80;;;;;;4199799;28;20063;-57
2023/07/12 08:59:39;;;;;;;4.65;0.90;;;27.40;98.60;;;;;;4199470;28;20097;-57
2023/07/12 09:02:03;;;;;;;3.42;1.20;;;27.20;98.60;;;;;;4191486;28;20052;-57
2023/07/12 09:04:31;;;;;;;8.40;1.25;;;27.20;99.50;;;;;;4190208;28;20272;-58
2023/07/12 09:06:54;;;;;;;2.60;0.90;;;27.30;98.60;;;;;;4190274;28;20048;-57
2023/07/12 09:09:16;;;;;;;5.40;0.93;;;27.20;98.50;;;;;;4194172;28;20052;-58
2023/07/12 09:11:36;;;;;;;;;;;27.20;98.60;;;;;;4203352;28;20283;-58
2023/07/12 09:13:57;;;;;;;3.78;0.90;;;27.40;99.60;;;;;;4193421;28;20204;-58
2023/07/12 09:16:29;;;;;;;8.00;0.80;;;27.60;99.20;;;;;;4190281;28;20044;-58
2023/07/12 09:18:54;;;;;;;2.75;0.90;;;27.40;97.70;;;;;;4192419;28;20043;-57
2023/07/12 09:21:19;;;;;;;3.50;0.90;;;27.60;98.30;;;;;;4190377;28;20051;-58
2023/07/12 09:23:43;;;;;;;2.28;0.70;;;28.00;98.90;;;;;;4189732;28;20063;-58
2023/07/12 09:26:10;;;;;;;7.15;1.27;;;28.40;99.10;;;;;;4200113;28;20056;-58
2023/07/12 09:28:30;;;;;;;7.32;0.90;;;28.90;99.00;;;;;;4190477;28;20060;-58
2023/07/12 09:30:52;;;;;;;6.43;1.00;;;29.10;97.70;;;;;;4188930;28;20048;-58
2023/07/12 09:33:24;;;;;;;8.25;1.00;;;29.10;98.20;;;;;;4188944;28;20056;-57
2023/07/12 09:35:45;;;;;;;4.53;1.63;;;29.00;96.40;;;;;;4189722;28;20178;-58
2023/07/12 09:38:15;;;;;;;5.85;1.33;;;29.00;98.50;;;;;;4191733;28;20208;-58
2023/07/12 09:40:44;;;;;;;8.07;0.85;;;29.30;97.60;;;;;;4191399;28;20048;-57
2023/07/12 09:43:23;;;;;;;8.45;1.25;;;29.60;96.70;;;;;;4193004;28;20055;-58
2023/07/12 09:45:54;;;;;;;6.85;0.88;;;30.00;97.50;;;;;;4192594;28;20079;-58
2023/07/12 09:48:47;;;;;;;2.60;0.70;;;29.50;96.40;;;;;;4192779;28;20051;-58
2023/07/12 09:51:06;;;;;;;10.60;1.00;;;29.40;96.80;;;;;;4192541;28;20277;-59
2023/07/12 09:53:49;;;;;;;5.55;0.70;;;29.70;96.40;;;;;;4190011;28;20083;-59
2023/07/12 09:56:18;;;;;;;5.57;0.80;;;29.60;95.80;;;;;;4190792;28;20059;-58
2023/07/12 09:58:48;;;;;;;2.90;0.98;;;29.50;96.00;;;;;;4195599;28;20048;-58
2023/07/12 10:01:23;;;;;;;7.13;1.52;;;29.60;97.40;;;;;;4195706;28;20087;-58
2023/07/12 10:03:48;;;;;;;9.05;0.80;;;30.10;95.90;;;;;;4196140;28;20055;-59
2023/07/12 10:06:28;;;;;;;5.78;0.80;;;30.00;95.80;;;;;;4191544;28;20116;-59
2023/07/12 10:08:54;;;;;;;4.82;1.10;;;29.90;96.00;;;;;;4189772;28;20040;-58
2023/07/12 10:11:35;;;;;;;6.28;1.00;;;30.00;95.00;;;;;;4189523;28;20090;-59
2023/07/12 10:14:01;;;;;;;7.07;0.90;;;29.90;95.30;;;;;;4198925;28;20354;-58
2023/07/12 10:16:35;;;;;;;12.05;1.33;;;29.80;94.80;;;;;;4199825;28;20059;-58
2023/07/12 10:18:57;;;;;;;7.38;1.10;;;29.90;95.30;;;;;;4187427;28;20098;-58
2023/07/12 10:21:20;;;;;;;6.10;0.90;;;30.10;95.60;;;;;;4191734;28;20044;-58
2023/07/12 10:23:48;;;;;;;2.60;0.80;;;29.90;95.10;;;;;;4189566;28;20240;-58
2023/07/12 10:26:12;;;;;;;4.75;1.67;;;30.10;95.40;;;;;;4189613;28;20055;-58
2023/07/12 10:28:44;;;;;;;6.95;1.05;;;29.40;94.80;;;;;;4198009;28;20075;-58
2023/07/12 10:31:34;;;;;;;2.70;1.08;;;29.40;96.00;;;;;;4196167;28;20104;-58
2023/07/12 10:34:21;;;;;;;1.60;1.40;;;29.50;95.30;;;;;;4188666;28;20056;-58
2023/07/12 10:36:44;;;;;;;4.05;0.80;;;30.00;96.00;;;;;;4162390;28;20047;-58
2023/07/12 10:39:05;;;;;;;4.00;0.80;;;30.00;96.00;;;;;;4195340;28;20044;-58
2023/07/12 10:41:34;;;;;;;5.20;1.00;;;30.40;96.10;;;;;;4192649;28;20075;-58
2023/07/12 10:44:16;;;;;;;6.40;1.08;;;30.70;96.20;;;;;;4189322;28;20044;-58
2023/07/12 10:46:44;;;;;;;3.70;0.80;;;30.80;95.50;;;;;;4190553;28;20112;-58
2023/07/12 10:49:17;;;;;;;5.38;1.35;;;30.50;95.30;;;;;;4190532;28;20043;-59
2023/07/12 10:51:40;;;;;;;6.60;0.90;;;30.80;95.50;;;;;;4189545;28;20079;-59
2023/07/12 10:54:21;;;;;;;6.07;1.40;;;31.10;95.80;;;;;;4189871;28;20080;-59
2023/07/12 10:56:53;;;;;;;4.05;0.98;;;31.00;94.90;;;;;;4189692;28;20362;-59
2023/07/12 10:59:42;;;;;;;8.57;1.15;;;31.00;95.20;;;;;;4191051;28;20043;-59
2023/07/12 11:02:05;;;;;;;1.63;0.80;;;31.10;94.90;;;;;;4193714;28;20087;-59
2023/07/12 11:04:32;;;;;;;4.05;1.10;;;31.60;96.10;;;;;;4193102;28;20052;-58
2023/07/12 11:07:04;;;;;;;6.18;0.80;;;31.50;95.00;;;;;;4192541;28;20090;-58
2023/07/12 11:09:46;;;;;;;10.13;1.35;;;31.90;94.70;;;;;;4189769;28;20390;-58
2023/07/12 11:12:26;;;;;;;5.55;0.90;;;31.30;94.00;;;;;;4192212;28;20236;-58
2023/07/12 11:14:51;;;;;;;14.25;1.15;;;31.40;95.50;;;;;;4191832;28;20109;-58
2023/07/12 11:17:16;;;;;;;10.10;0.80;;;31.20;93.40;;;;;;4195824;28;20052;-58
2023/07/12 11:19:42;;;;;;;8.18;1.20;;;31.20;94.20;;;;;;4196676;28;20075;-59
2023/07/12 11:22:18;;;;;;;4.53;0.80;;;31.10;94.30;;;;;;4197223;28;20071;-59
2023/07/12 11:25:00;;;;;;;7.95;1.60;;;31.40;95.00;;;;;;4189501;28;20047;-59
2023/07/12 11:27:30;;;;;;;;;;;31.60;94.20;;;;;;4188285;28;20108;-58
2023/07/12 11:29:54;;;;;;;14.50;1.30;;;31.30;94.00;;;;;;4188459;28;19939;-58
2023/07/12 11:32:40;;;;;;;7.65;1.63;;;31.40;94.00;;;;;;4189717;28;20052;-59
2023/07/12 11:35:08;;;;;;;8.48;1.17;;;31.50;94.30;;;;;;4189299;28;20043;-58
2023/07/12 11:37:56;;;;;;;7.53;0.90;;;31.60;93.30;;;;;;4198740;28;20067;-58
2023/07/12 11:40:24;;;;;;;4.97;1.35;;;31.70;94.40;;;;;;4195403;28;20048;-60
2023/07/12 11:42:45;;;;;;;6.45;1.50;;;31.50;93.80;;;;;;4192821;28;20071;-59
2023/07/12 11:45:12;;;;;;;6.53;1.02;;;31.60;93.70;;;;;;4190845;28;20048;-59
2023/07/12 11:47:35;;;;;;;4.50;0.90;;;31.60;93.60;;;;;;4178836;28;20110;-59
2023/07/12 11:49:57;;;;;;;4.82;1.45;;;31.20;93.90;;;;;;4190062;28;20048;-59
2023/07/12 11:52:17;;;;;;;11.10;1.20;;;31.40;94.00;;;;;;4188689;28;20048;-60
2023/07/12 11:54:40;;;;;;;6.70;0.90;;;31.60;94.20;;;;;;4195017;28;20338;-59
2023/07/12 11:57:02;;;;;;;8.13;1.17;;;31.60;94.20;;;;;;4192025;28;20087;-59
2023/07/12 11:59:23;;;;;;;;;;;31.60;94.40;;;;;;4189274;28;20048;-59
2023/07/12 12:01:45;;;;;;;4.32;0.85;;;31.60;94.30;;;;;;4189947;28;19924;-59
2023/07/12 12:04:05;;;;;;;4.90;0.80;;;31.70;94.30;;;;;;4189890;28;20052;-58
2023/07/12 12:06:26;;;;;;;6.57;0.75;;;32.10;93.90;;;;;;4190174;28;20039;-58
2023/07/12 12:08:54;;;;;;;7.43;1.05;;;32.00;94.30;;;;;;4191589;28;20148;-58
2023/07/12 12:11:14;;;;;;;5.05;0.80;;;32.20;94.60;;;;;;4190919;28;20318;-59
2023/07/12 12:13:46;;;;;;;6.47;1.42;;;32.00;93.60;;;;;;4189583;28;20090;-58
2023/07/12 12:16:20;;;;;;;6.55;1.42;;;31.80;93.80;;;;;;4190966;28;20079;-58
2023/07/12 12:18:53;;;;;;;3.47;0.80;;;31.50;94.20;;;;;;4192719;28;20379;-58
2023/07/12 12:21:16;;;;;;;4.25;1.10;;;31.70;94.80;;;;;;4194383;28;20239;-59
2023/07/12 12:23:41;;;;;;;8.68;1.13;;;31.70;93.90;;;;;;4194207;28;20109;-58
2023/07/12 12:26:05;;;;;;;8.15;1.23;;;32.30;94.90;;;;;;4198014;28;20075;-58